sensor_id;sensor_type;location;lat;lon;timestamp;temperature;humidity
780;DHT22;373;49.342;8.146;2023-02-02T00:02:13;8.20;99.90
780;DHT22;373;49.342;8.146;2023-02-02T00:04:40;8.20;1.00
780;DHT22;373;49.342;8.146;2023-02-02T00:07:07;8.30;99.90
780;DHT22;373;49.342;8.146;2023-02-02T00:09:35;8.30;99.90
780;DHT22;373;49.342;8.146;2023-02-02T00:12:02;8.20;1.00
780;DHT22;373;49.342;8.146;2023-02-02T00:14:29;8.10;99.90
780;DHT22;373;49.342;8.146;2023-02-02T00:16:57;8.10;1.00
780;DHT22;373;49.342;8.146;2023-02-02T00:19:27;8.00;99.90
780;DHT22;373;49.342;8.146;2023-02-02T00:21:56;8.10;2.00
780;DHT22;373;49.342;8.146;2023-02-02T00:24:24;8.10;90.90
780;DHT22;373;49.342;8.146;2023-02-02T00:26:52;8.10;99.90
780;DHT22;373;49.342;8.146;2023-02-02T00:29:23;8.10;1.00
780;DHT22;373;49.342;8.146;2023-02-02T00:31:50;8.20;1.00
780;DHT22;373;49.342;8.146;2023-02-02T00:34:18;8.30;1.00
780;DHT22;373;49.342;8.146;2023-02-02T00:36:48;8.10;99.90
780;DHT22;373;49.342;8.146;2023-02-02T00:39:17;8.20;1.00
780;DHT22;373;49.342;8.146;2023-02-02T00:41:44;8.20;1.00
780;DHT22;373;49.342;8.146;2023-02-02T00:44:12;8.20;1.00
780;DHT22;373;49.342;8.146;2023-02-02T00:46:56;8.20;1.00
780;DHT22;373;49.342;8.146;2023-02-02T00:49:23;8.30;99.90
780;DHT22;373;49.342;8.146;2023-02-02T00:51:52;8.40;1.00
780;DHT22;373;49.342;8.146;2023-02-02T00:54:19;8.20;98.30
780;DHT22;373;49.342;8.146;2023-02-02T00:56:46;8.30;99.90
780;DHT22;373;49.342;8.146;2023-02-02T00:59:13;8.20;99.90
780;DHT22;373;49.342;8.146;2023-02-02T01:01:40;8.30;18.60
780;DHT22;373;49.342;8.146;2023-02-02T01:04:07;8.30;1.00
780;DHT22;373;49.342;8.146;2023-02-02T01:06:35;8.40;1.00
780;DHT22;373;49.342;8.146;2023-02-02T01:09:03;8.50;1.00
780;DHT22;373;49.342;8.146;2023-02-02T01:11:31;8.50;99.90
780;DHT22;373;49.342;8.146;2023-02-02T01:13:58;8.50;99.90
780;DHT22;373;49.342;8.146;2023-02-02T01:16:25;8.40;1.00
780;DHT22;373;49.342;8.146;2023-02-02T01:18:52;8.40;1.00
780;DHT22;373;49.342;8.146;2023-02-02T01:21:19;8.40;99.90
780;DHT22;373;49.342;8.146;2023-02-02T01:23:47;8.50;99.90
780;DHT22;373;49.342;8.146;2023-02-02T01:26:16;8.50;1.00
780;DHT22;373;49.342;8.146;2023-02-02T01:28:43;8.50;16.90
780;DHT22;373;49.342;8.146;2023-02-02T01:31:12;8.50;1.00
780;DHT22;373;49.342;8.146;2023-02-02T01:33:39;8.30;99.90
780;DHT22;373;49.342;8.146;2023-02-02T01:36:09;8.30;1.00
780;DHT22;373;49.342;8.146;2023-02-02T01:38:36;8.40;91.70
780;DHT22;373;49.342;8.146;2023-02-02T01:41:04;8.50;1.00
780;DHT22;373;49.342;8.146;2023-02-02T01:43:51;8.40;1.00
780;DHT22;373;49.342;8.146;2023-02-02T01:46:21;8.40;5.00
780;DHT22;373;49.342;8.146;2023-02-02T01:48:53;8.40;1.00
780;DHT22;373;49.342;8.146;2023-02-02T01:51:24;8.30;99.90
780;DHT22;373;49.342;8.146;2023-02-02T01:53:53;8.30;1.00
780;DHT22;373;49.342;8.146;2023-02-02T01:56:24;8.30;1.00
780;DHT22;373;49.342;8.146;2023-02-02T01:58:54;8.50;1.00
780;DHT22;373;49.342;8.146;2023-02-02T02:01:21;8.50;99.90
780;DHT22;373;49.342;8.146;2023-02-02T02:03:48;8.40;99.90
780;DHT22;373;49.342;8.146;2023-02-02T02:06:17;8.50;1.00
780;DHT22;373;49.342;8.146;2023-02-02T02:08:49;8.40;1.00
780;DHT22;373;49.342;8.146;2023-02-02T02:11:19;8.40;1.00
780;DHT22;373;49.342;8.146;2023-02-02T02:13:46;8.40;95.00
780;DHT22;373;49.342;8.146;2023-02-02T02:16:42;8.40;1.00
780;DHT22;373;49.342;8.146;2023-02-02T02:19:44;8.50;99.90
780;DHT22;373;49.342;8.146;2023-02-02T02:22:43;8.50;66.90
780;DHT22;373;49.342;8.146;2023-02-02T02:25:57;8.50;99.90
780;DHT22;373;49.342;8.146;2023-02-02T02:29:02;8.50;1.00
780;DHT22;373;49.342;8.146;2023-02-02T02:32:00;8.50;1.00
780;DHT22;373;49.342;8.146;2023-02-02T02:34:42;8.30;1.00
780;DHT22;373;49.342;8.146;2023-02-02T02:37:17;8.40;87.10
780;DHT22;373;49.342;8.146;2023-02-02T02:39:50;8.40;1.00
780;DHT22;373;49.342;8.146;2023-02-02T02:42:23;8.70;99.90
780;DHT22;373;49.342;8.146;2023-02-02T02:44:53;8.40;99.90
780;DHT22;373;49.342;8.146;2023-02-02T02:47:23;8.30;70.50
780;DHT22;373;49.342;8.146;2023-02-02T02:49:51;8.20;1.00
780;DHT22;373;49.342;8.146;2023-02-02T02:52:18;8.20;72.10
780;DHT22;373;49.342;8.146;2023-02-02T02:54:48;8.50;1.00
780;DHT22;373;49.342;8.146;2023-02-02T02:57:30;8.20;1.00
780;DHT22;373;49.342;8.146;2023-02-02T03:00:06;8.10;1.00
780;DHT22;373;49.342;8.146;2023-02-02T03:02:43;8.10;1.00
780;DHT22;373;49.342;8.146;2023-02-02T03:05:23;8.10;59.80
780;DHT22;373;49.342;8.146;2023-02-02T03:07:57;8.10;1.00
780;DHT22;373;49.342;8.146;2023-02-02T03:10:29;8.20;1.00
780;DHT22;373;49.342;8.146;2023-02-02T03:12:56;8.20;35.20
780;DHT22;373;49.342;8.146;2023-02-02T03:15:24;8.20;99.90
780;DHT22;373;49.342;8.146;2023-02-02T03:17:52;8.10;99.90
780;DHT22;373;49.342;8.146;2023-02-02T03:20:20;8.10;99.90
780;DHT22;373;49.342;8.146;2023-02-02T03:22:47;8.10;1.00
780;DHT22;373;49.342;8.146;2023-02-02T03:25:14;8.20;99.90
780;DHT22;373;49.342;8.146;2023-02-02T03:27:41;8.20;51.00
780;DHT22;373;49.342;8.146;2023-02-02T03:30:11;8.40;1.00
780;DHT22;373;49.342;8.146;2023-02-02T03:32:39;8.30;1.00
780;DHT22;373;49.342;8.146;2023-02-02T03:35:08;8.20;1.00
780;DHT22;373;49.342;8.146;2023-02-02T03:37:36;8.30;99.90
780;DHT22;373;49.342;8.146;2023-02-02T03:40:03;8.20;1.00
780;DHT22;373;49.342;8.146;2023-02-02T03:42:31;8.20;1.00
780;DHT22;373;49.342;8.146;2023-02-02T03:44:58;8.20;26.90
780;DHT22;373;49.342;8.146;2023-02-02T03:47:27;8.20;21.20
780;DHT22;373;49.342;8.146;2023-02-02T03:49:55;8.20;1.00
780;DHT22;373;49.342;8.146;2023-02-02T03:52:23;8.30;99.90
780;DHT22;373;49.342;8.146;2023-02-02T03:54:51;8.20;99.90
780;DHT22;373;49.342;8.146;2023-02-02T03:57:18;8.20;99.90
780;DHT22;373;49.342;8.146;2023-02-02T03:59:45;8.10;99.90
780;DHT22;373;49.342;8.146;2023-02-02T04:02:12;8.10;99.90
780;DHT22;373;49.342;8.146;2023-02-02T04:04:39;8.10;1.00
780;DHT22;373;49.342;8.146;2023-02-02T04:07:06;8.10;1.00
780;DHT22;373;49.342;8.146;2023-02-02T04:09:35;8.10;1.00
780;DHT22;373;49.342;8.146;2023-02-02T04:12:02;8.20;1.00
780;DHT22;373;49.342;8.146;2023-02-02T04:14:29;8.20;99.90
780;DHT22;373;49.342;8.146;2023-02-02T04:16:56;8.20;93.70
780;DHT22;373;49.342;8.146;2023-02-02T04:19:23;8.20;1.00
780;DHT22;373;49.342;8.146;2023-02-02T04:21:50;8.20;1.00
780;DHT22;373;49.342;8.146;2023-02-02T04:24:17;8.20;42.70
780;DHT22;373;49.342;8.146;2023-02-02T04:26:45;8.30;99.90
780;DHT22;373;49.342;8.146;2023-02-02T04:29:12;8.30;99.90
780;DHT22;373;49.342;8.146;2023-02-02T04:31:39;8.30;99.90
780;DHT22;373;49.342;8.146;2023-02-02T04:34:06;8.30;1.00
780;DHT22;373;49.342;8.146;2023-02-02T04:36:33;8.30;99.90
780;DHT22;373;49.342;8.146;2023-02-02T04:39:00;8.30;1.00
780;DHT22;373;49.342;8.146;2023-02-02T04:41:28;8.30;99.90
780;DHT22;373;49.342;8.146;2023-02-02T04:43:56;8.40;49.30
780;DHT22;373;49.342;8.146;2023-02-02T04:46:23;8.40;1.00
780;DHT22;373;49.342;8.146;2023-02-02T04:48:51;8.30;1.00
780;DHT22;373;49.342;8.146;2023-02-02T04:51:20;8.30;99.90
780;DHT22;373;49.342;8.146;2023-02-02T04:53:47;8.30;99.90
780;DHT22;373;49.342;8.146;2023-02-02T04:56:16;8.30;1.00
780;DHT22;373;49.342;8.146;2023-02-02T04:58:44;8.40;16.90
780;DHT22;373;49.342;8.146;2023-02-02T05:01:16;8.20;99.90
780;DHT22;373;49.342;8.146;2023-02-02T05:03:43;8.30;99.90
780;DHT22;373;49.342;8.146;2023-02-02T05:06:10;8.40;1.00
780;DHT22;373;49.342;8.146;2023-02-02T05:08:38;8.30;1.00
780;DHT22;373;49.342;8.146;2023-02-02T05:11:08;8.30;1.00
780;DHT22;373;49.342;8.146;2023-02-02T05:13:35;8.30;1.00
780;DHT22;373;49.342;8.146;2023-02-02T05:16:02;8.30;1.00
780;DHT22;373;49.342;8.146;2023-02-02T05:18:31;8.40;1.00
780;DHT22;373;49.342;8.146;2023-02-02T05:20:59;8.50;90.30
780;DHT22;373;49.342;8.146;2023-02-02T05:23:26;8.50;99.90
780;DHT22;373;49.342;8.146;2023-02-02T05:25:53;8.30;1.00
780;DHT22;373;49.342;8.146;2023-02-02T05:28:21;8.30;99.90
780;DHT22;373;49.342;8.146;2023-02-02T05:30:49;8.30;1.00
780;DHT22;373;49.342;8.146;2023-02-02T05:33:16;8.30;1.00
780;DHT22;373;49.342;8.146;2023-02-02T05:35:49;8.30;19.40
780;DHT22;373;49.342;8.146;2023-02-02T05:38:16;8.20;1.00
780;DHT22;373;49.342;8.146;2023-02-02T05:40:43;8.20;1.00
780;DHT22;373;49.342;8.146;2023-02-02T05:43:10;8.20;1.00
780;DHT22;373;49.342;8.146;2023-02-02T05:45:37;8.20;1.00
780;DHT22;373;49.342;8.146;2023-02-02T05:48:04;8.30;1.00
780;DHT22;373;49.342;8.146;2023-02-02T05:50:32;8.30;1.00
780;DHT22;373;49.342;8.146;2023-02-02T05:53:04;8.40;1.00
780;DHT22;373;49.342;8.146;2023-02-02T05:55:31;8.40;1.00
780;DHT22;373;49.342;8.146;2023-02-02T05:57:58;8.40;1.00
780;DHT22;373;49.342;8.146;2023-02-02T06:00:25;8.40;99.90
780;DHT22;373;49.342;8.146;2023-02-02T06:02:52;8.30;99.90
780;DHT22;373;49.342;8.146;2023-02-02T06:05:19;8.30;1.00
780;DHT22;373;49.342;8.146;2023-02-02T06:07:46;8.20;1.00
780;DHT22;373;49.342;8.146;2023-02-02T06:10:15;8.30;1.00
780;DHT22;373;49.342;8.146;2023-02-02T06:12:42;8.20;99.90
780;DHT22;373;49.342;8.146;2023-02-02T06:15:10;8.40;99.90
780;DHT22;373;49.342;8.146;2023-02-02T06:17:37;8.20;81.90
780;DHT22;373;49.342;8.146;2023-02-02T06:20:05;8.20;99.90
780;DHT22;373;49.342;8.146;2023-02-02T06:22:32;8.20;1.00
780;DHT22;373;49.342;8.146;2023-02-02T06:25:02;8.20;99.90
780;DHT22;373;49.342;8.146;2023-02-02T06:27:32;8.30;99.90
780;DHT22;373;49.342;8.146;2023-02-02T06:29:59;8.40;1.00
780;DHT22;373;49.342;8.146;2023-02-02T06:32:27;8.50;99.90
780;DHT22;373;49.342;8.146;2023-02-02T06:34:55;8.40;99.90
780;DHT22;373;49.342;8.146;2023-02-02T06:37:22;8.30;1.00
780;DHT22;373;49.342;8.146;2023-02-02T06:39:52;8.20;1.00
780;DHT22;373;49.342;8.146;2023-02-02T06:42:20;8.30;1.00
780;DHT22;373;49.342;8.146;2023-02-02T06:44:48;8.30;1.00
780;DHT22;373;49.342;8.146;2023-02-02T06:47:15;8.40;99.90
780;DHT22;373;49.342;8.146;2023-02-02T06:49:45;8.20;1.00
780;DHT22;373;49.342;8.146;2023-02-02T06:52:12;8.20;99.90
780;DHT22;373;49.342;8.146;2023-02-02T06:54:39;8.20;1.00
780;DHT22;373;49.342;8.146;2023-02-02T06:57:07;8.20;1.00
780;DHT22;373;49.342;8.146;2023-02-02T06:59:34;8.20;95.90
780;DHT22;373;49.342;8.146;2023-02-02T07:02:04;8.20;99.90
780;DHT22;373;49.342;8.146;2023-02-02T07:04:31;8.40;1.00
780;DHT22;373;49.342;8.146;2023-02-02T07:06:58;8.30;84.40
780;DHT22;373;49.342;8.146;2023-02-02T07:09:25;8.30;1.00
780;DHT22;373;49.342;8.146;2023-02-02T07:11:52;8.30;1.00
780;DHT22;373;49.342;8.146;2023-02-02T07:14:19;8.20;99.90
780;DHT22;373;49.342;8.146;2023-02-02T07:16:46;8.30;1.00
780;DHT22;373;49.342;8.146;2023-02-02T07:19:15;8.20;99.90
780;DHT22;373;49.342;8.146;2023-02-02T07:21:42;8.20;99.90
780;DHT22;373;49.342;8.146;2023-02-02T07:24:09;8.20;99.90
780;DHT22;373;49.342;8.146;2023-02-02T07:26:36;8.20;99.90
780;DHT22;373;49.342;8.146;2023-02-02T07:29:04;8.40;99.90
780;DHT22;373;49.342;8.146;2023-02-02T07:31:31;8.30;3.50
780;DHT22;373;49.342;8.146;2023-02-02T07:33:59;8.30;7.50
780;DHT22;373;49.342;8.146;2023-02-02T07:36:27;8.40;99.90
780;DHT22;373;49.342;8.146;2023-02-02T07:38:54;8.40;99.90
780;DHT22;373;49.342;8.146;2023-02-02T07:41:22;8.40;99.90
780;DHT22;373;49.342;8.146;2023-02-02T07:43:50;8.50;99.90
780;DHT22;373;49.342;8.146;2023-02-02T07:46:18;8.50;90.60
780;DHT22;373;49.342;8.146;2023-02-02T07:48:46;8.20;99.90
780;DHT22;373;49.342;8.146;2023-02-02T07:51:14;8.20;99.90
780;DHT22;373;49.342;8.146;2023-02-02T07:53:44;8.10;1.00
780;DHT22;373;49.342;8.146;2023-02-02T07:56:13;8.10;99.90
780;DHT22;373;49.342;8.146;2023-02-02T07:58:40;8.20;99.90
780;DHT22;373;49.342;8.146;2023-02-02T08:01:09;8.40;99.90
780;DHT22;373;49.342;8.146;2023-02-02T08:03:37;8.40;99.90
780;DHT22;373;49.342;8.146;2023-02-02T08:06:09;8.50;1.00
780;DHT22;373;49.342;8.146;2023-02-02T08:08:37;8.40;49.00
780;DHT22;373;49.342;8.146;2023-02-02T08:11:07;8.40;42.90
780;DHT22;373;49.342;8.146;2023-02-02T08:13:34;8.40;1.00
780;DHT22;373;49.342;8.146;2023-02-02T08:16:02;8.40;1.00
780;DHT22;373;49.342;8.146;2023-02-02T08:18:29;8.40;1.00
780;DHT22;373;49.342;8.146;2023-02-02T08:20:57;8.40;1.00
780;DHT22;373;49.342;8.146;2023-02-02T08:23:25;8.40;1.00
780;DHT22;373;49.342;8.146;2023-02-02T08:25:52;8.40;99.90
780;DHT22;373;49.342;8.146;2023-02-02T08:28:20;8.40;99.90
780;DHT22;373;49.342;8.146;2023-02-02T08:30:47;8.40;1.00
780;DHT22;373;49.342;8.146;2023-02-02T08:33:15;8.40;1.00
780;DHT22;373;49.342;8.146;2023-02-02T08:35:42;8.40;35.30
780;DHT22;373;49.342;8.146;2023-02-02T08:38:11;8.50;99.90
780;DHT22;373;49.342;8.146;2023-02-02T08:40:39;8.40;94.80
780;DHT22;373;49.342;8.146;2023-02-02T08:43:05;8.50;1.00
780;DHT22;373;49.342;8.146;2023-02-02T08:45:34;8.50;99.90
780;DHT22;373;49.342;8.146;2023-02-02T08:48:01;8.50;1.00
780;DHT22;373;49.342;8.146;2023-02-02T08:50:28;8.70;99.90
780;DHT22;373;49.342;8.146;2023-02-02T08:52:55;8.50;1.00
780;DHT22;373;49.342;8.146;2023-02-02T08:55:22;8.60;1.00
780;DHT22;373;49.342;8.146;2023-02-02T08:57:49;8.60;99.90
780;DHT22;373;49.342;8.146;2023-02-02T09:00:17;8.60;1.00
780;DHT22;373;49.342;8.146;2023-02-02T09:02:49;8.60;99.90
780;DHT22;373;49.342;8.146;2023-02-02T09:05:16;8.60;99.90
780;DHT22;373;49.342;8.146;2023-02-02T09:07:43;8.60;99.90
780;DHT22;373;49.342;8.146;2023-02-02T09:10:10;8.60;99.90
780;DHT22;373;49.342;8.146;2023-02-02T09:12:37;8.70;25.80
780;DHT22;373;49.342;8.146;2023-02-02T09:15:05;8.60;73.00
780;DHT22;373;49.342;8.146;2023-02-02T09:17:32;8.60;1.00
780;DHT22;373;49.342;8.146;2023-02-02T09:20:01;8.70;1.00
780;DHT22;373;49.342;8.146;2023-02-02T09:22:29;8.60;1.00
780;DHT22;373;49.342;8.146;2023-02-02T09:24:56;8.60;99.90
780;DHT22;373;49.342;8.146;2023-02-02T09:27:23;8.60;1.00
780;DHT22;373;49.342;8.146;2023-02-02T09:29:50;8.60;1.00
780;DHT22;373;49.342;8.146;2023-02-02T09:32:18;8.60;1.00
780;DHT22;373;49.342;8.146;2023-02-02T09:34:45;8.60;1.00
780;DHT22;373;49.342;8.146;2023-02-02T09:37:13;8.60;99.90
780;DHT22;373;49.342;8.146;2023-02-02T09:39:40;8.60;1.00
780;DHT22;373;49.342;8.146;2023-02-02T09:42:26;8.70;99.90
780;DHT22;373;49.342;8.146;2023-02-02T09:45:01;8.60;99.90
780;DHT22;373;49.342;8.146;2023-02-02T09:50:36;8.70;35.30
780;DHT22;373;49.342;8.146;2023-02-02T09:53:16;8.70;99.90
780;DHT22;373;49.342;8.146;2023-02-02T09:55:45;8.80;99.90
780;DHT22;373;49.342;8.146;2023-02-02T09:58:18;8.70;99.90
780;DHT22;373;49.342;8.146;2023-02-02T10:00:52;8.80;99.90
780;DHT22;373;49.342;8.146;2023-02-02T10:03:25;8.80;23.50
780;DHT22;373;49.342;8.146;2023-02-02T10:06:00;8.80;21.00
780;DHT22;373;49.342;8.146;2023-02-02T10:08:34;8.80;1.00
780;DHT22;373;49.342;8.146;2023-02-02T10:11:17;8.80;1.00
780;DHT22;373;49.342;8.146;2023-02-02T10:13:46;8.90;1.00
780;DHT22;373;49.342;8.146;2023-02-02T10:16:16;9.00;1.00
780;DHT22;373;49.342;8.146;2023-02-02T10:18:47;9.00;1.00
780;DHT22;373;49.342;8.146;2023-02-02T10:21:22;9.00;1.00
780;DHT22;373;49.342;8.146;2023-02-02T10:23:54;9.10;1.00
780;DHT22;373;49.342;8.146;2023-02-02T10:26:27;9.10;1.00
780;DHT22;373;49.342;8.146;2023-02-02T10:29:04;9.10;1.00
780;DHT22;373;49.342;8.146;2023-02-02T10:31:42;9.00;99.90
780;DHT22;373;49.342;8.146;2023-02-02T10:34:16;9.00;1.00
780;DHT22;373;49.342;8.146;2023-02-02T10:37:21;9.00;1.00
780;DHT22;373;49.342;8.146;2023-02-02T10:40:00;9.00;1.00
780;DHT22;373;49.342;8.146;2023-02-02T10:42:34;9.00;1.00
780;DHT22;373;49.342;8.146;2023-02-02T10:45:11;9.00;1.00
780;DHT22;373;49.342;8.146;2023-02-02T10:47:39;9.10;1.00
780;DHT22;373;49.342;8.146;2023-02-02T10:50:16;9.10;99.90
780;DHT22;373;49.342;8.146;2023-02-02T10:52:46;9.00;1.00
780;DHT22;373;49.342;8.146;2023-02-02T10:55:23;9.00;1.00
780;DHT22;373;49.342;8.146;2023-02-02T10:57:59;9.10;1.00
780;DHT22;373;49.342;8.146;2023-02-02T11:00:32;9.10;1.00
780;DHT22;373;49.342;8.146;2023-02-02T11:03:01;9.30;99.90
780;DHT22;373;49.342;8.146;2023-02-02T11:05:29;9.20;99.90
780;DHT22;373;49.342;8.146;2023-02-02T11:08:16;9.30;99.90
780;DHT22;373;49.342;8.146;2023-02-02T11:10:47;9.30;99.90
780;DHT22;373;49.342;8.146;2023-02-02T11:13:22;9.30;99.90
780;DHT22;373;49.342;8.146;2023-02-02T11:15:59;9.40;99.90
780;DHT22;373;49.342;8.146;2023-02-02T11:18:37;9.30;99.90
780;DHT22;373;49.342;8.146;2023-02-02T11:21:17;9.20;75.10
780;DHT22;373;49.342;8.146;2023-02-02T11:23:51;9.40;99.90
780;DHT22;373;49.342;8.146;2023-02-02T11:26:21;9.40;60.10
780;DHT22;373;49.342;8.146;2023-02-02T11:28:50;9.40;59.10
780;DHT22;373;49.342;8.146;2023-02-02T11:31:32;9.30;28.40
780;DHT22;373;49.342;8.146;2023-02-02T11:34:17;9.20;99.90
780;DHT22;373;49.342;8.146;2023-02-02T11:36:59;9.20;99.90
780;DHT22;373;49.342;8.146;2023-02-02T11:39:27;9.40;99.90
780;DHT22;373;49.342;8.146;2023-02-02T11:42:01;9.20;99.90
780;DHT22;373;49.342;8.146;2023-02-02T11:44:30;9.30;99.90
780;DHT22;373;49.342;8.146;2023-02-02T11:47:01;9.60;99.90
780;DHT22;373;49.342;8.146;2023-02-02T11:49:32;9.80;98.00
780;DHT22;373;49.342;8.146;2023-02-02T11:52:05;9.70;94.20
780;DHT22;373;49.342;8.146;2023-02-02T11:54:37;9.70;54.50
780;DHT22;373;49.342;8.146;2023-02-02T11:57:07;9.80;1.00
780;DHT22;373;49.342;8.146;2023-02-02T11:59:36;9.90;1.00
780;DHT22;373;49.342;8.146;2023-02-02T12:02:23;9.90;1.00
780;DHT22;373;49.342;8.146;2023-02-02T12:04:52;9.90;1.00
780;DHT22;373;49.342;8.146;2023-02-02T12:07:24;9.80;1.00
780;DHT22;373;49.342;8.146;2023-02-02T12:09:52;9.90;1.00
780;DHT22;373;49.342;8.146;2023-02-02T12:12:33;9.90;1.00
780;DHT22;373;49.342;8.146;2023-02-02T12:15:14;9.90;1.00
780;DHT22;373;49.342;8.146;2023-02-02T12:17:47;9.80;1.00
780;DHT22;373;49.342;8.146;2023-02-02T12:20:29;9.80;1.00
780;DHT22;373;49.342;8.146;2023-02-02T12:26:14;9.60;1.00
780;DHT22;373;49.342;8.146;2023-02-02T12:28:59;9.60;1.00
780;DHT22;373;49.342;8.146;2023-02-02T12:31:34;9.70;1.00
780;DHT22;373;49.342;8.146;2023-02-02T12:34:09;9.70;1.00
780;DHT22;373;49.342;8.146;2023-02-02T12:36:46;9.70;1.00
780;DHT22;373;49.342;8.146;2023-02-02T12:39:30;9.70;1.00
780;DHT22;373;49.342;8.146;2023-02-02T12:42:24;9.60;1.00
780;DHT22;373;49.342;8.146;2023-02-02T12:45:18;9.50;1.00
780;DHT22;373;49.342;8.146;2023-02-02T12:47:56;9.70;1.00
780;DHT22;373;49.342;8.146;2023-02-02T12:50:30;9.50;1.00
780;DHT22;373;49.342;8.146;2023-02-02T12:53:08;9.50;1.00
780;DHT22;373;49.342;8.146;2023-02-02T12:55:45;9.50;1.00
780;DHT22;373;49.342;8.146;2023-02-02T12:58:23;9.50;45.60
780;DHT22;373;49.342;8.146;2023-02-02T13:03:54;9.60;74.10
780;DHT22;373;49.342;8.146;2023-02-02T13:06:46;9.70;1.00
780;DHT22;373;49.342;8.146;2023-02-02T13:09:23;9.70;1.00
780;DHT22;373;49.342;8.146;2023-02-02T13:11:56;9.70;1.00
780;DHT22;373;49.342;8.146;2023-02-02T13:14:28;9.80;1.00
780;DHT22;373;49.342;8.146;2023-02-02T13:17:01;9.90;1.00
780;DHT22;373;49.342;8.146;2023-02-02T13:19:34;9.90;1.00
780;DHT22;373;49.342;8.146;2023-02-02T13:22:05;10.10;1.00
780;DHT22;373;49.342;8.146;2023-02-02T13:24:35;10.10;99.90
780;DHT22;373;49.342;8.146;2023-02-02T13:27:06;10.00;99.90
780;DHT22;373;49.342;8.146;2023-02-02T13:29:40;10.10;99.90
780;DHT22;373;49.342;8.146;2023-02-02T13:32:17;10.20;99.90
780;DHT22;373;49.342;8.146;2023-02-02T13:34:49;9.90;1.00
780;DHT22;373;49.342;8.146;2023-02-02T13:37:23;10.00;99.90
780;DHT22;373;49.342;8.146;2023-02-02T13:39:55;9.90;1.00
780;DHT22;373;49.342;8.146;2023-02-02T13:42:32;9.80;1.00
780;DHT22;373;49.342;8.146;2023-02-02T13:45:06;10.00;99.90
780;DHT22;373;49.342;8.146;2023-02-02T13:47:44;9.90;99.90
780;DHT22;373;49.342;8.146;2023-02-02T13:50:16;9.90;1.00
780;DHT22;373;49.342;8.146;2023-02-02T13:53:07;9.80;99.90
780;DHT22;373;49.342;8.146;2023-02-02T13:55:53;9.90;1.00
780;DHT22;373;49.342;8.146;2023-02-02T13:58:43;9.90;99.90
780;DHT22;373;49.342;8.146;2023-02-02T14:01:14;10.00;99.90
780;DHT22;373;49.342;8.146;2023-02-02T14:03:50;10.00;99.90
780;DHT22;373;49.342;8.146;2023-02-02T14:06:20;9.80;99.90
780;DHT22;373;49.342;8.146;2023-02-02T14:08:51;9.80;99.90
780;DHT22;373;49.342;8.146;2023-02-02T14:11:21;9.90;1.00
780;DHT22;373;49.342;8.146;2023-02-02T14:13:52;9.90;99.90
780;DHT22;373;49.342;8.146;2023-02-02T14:16:46;9.80;99.90
780;DHT22;373;49.342;8.146;2023-02-02T14:19:17;9.70;99.90
780;DHT22;373;49.342;8.146;2023-02-02T14:22:03;9.70;99.90
780;DHT22;373;49.342;8.146;2023-02-02T14:24:42;9.70;99.90
780;DHT22;373;49.342;8.146;2023-02-02T14:27:52;9.60;99.90
780;DHT22;373;49.342;8.146;2023-02-02T14:30:28;9.80;99.90
780;DHT22;373;49.342;8.146;2023-02-02T14:33:22;9.80;99.90
780;DHT22;373;49.342;8.146;2023-02-02T14:35:58;9.80;99.90
780;DHT22;373;49.342;8.146;2023-02-02T14:38:46;10.00;99.90
780;DHT22;373;49.342;8.146;2023-02-02T14:41:21;10.30;99.90
780;DHT22;373;49.342;8.146;2023-02-02T14:44:05;10.10;99.90
780;DHT22;373;49.342;8.146;2023-02-02T14:46:35;10.10;99.90
780;DHT22;373;49.342;8.146;2023-02-02T14:49:14;10.10;99.90
780;DHT22;373;49.342;8.146;2023-02-02T14:51:55;10.00;99.90
780;DHT22;373;49.342;8.146;2023-02-02T14:54:29;10.00;99.90
780;DHT22;373;49.342;8.146;2023-02-02T14:56:59;9.90;99.90
780;DHT22;373;49.342;8.146;2023-02-02T14:59:31;9.80;99.90
780;DHT22;373;49.342;8.146;2023-02-02T15:02:04;9.70;99.90
780;DHT22;373;49.342;8.146;2023-02-02T15:04:34;9.70;99.90
780;DHT22;373;49.342;8.146;2023-02-02T15:09:59;9.90;99.90
780;DHT22;373;49.342;8.146;2023-02-02T15:12:35;9.90;99.90
780;DHT22;373;49.342;8.146;2023-02-02T15:15:13;9.80;99.90
780;DHT22;373;49.342;8.146;2023-02-02T15:17:52;10.00;99.90
780;DHT22;373;49.342;8.146;2023-02-02T15:20:25;9.90;99.90
780;DHT22;373;49.342;8.146;2023-02-02T15:22:56;9.80;99.90
780;DHT22;373;49.342;8.146;2023-02-02T15:25:29;9.80;99.90
780;DHT22;373;49.342;8.146;2023-02-02T15:28:00;9.80;99.90
780;DHT22;373;49.342;8.146;2023-02-02T15:30:30;9.80;99.90
780;DHT22;373;49.342;8.146;2023-02-02T15:33:03;9.80;99.90
780;DHT22;373;49.342;8.146;2023-02-02T15:35:32;9.90;99.90
780;DHT22;373;49.342;8.146;2023-02-02T15:38:05;9.80;99.90
780;DHT22;373;49.342;8.146;2023-02-02T15:40:35;9.90;99.90
780;DHT22;373;49.342;8.146;2023-02-02T15:43:04;9.70;99.90
780;DHT22;373;49.342;8.146;2023-02-02T15:45:38;9.80;99.90
780;DHT22;373;49.342;8.146;2023-02-02T15:48:30;9.70;99.90
780;DHT22;373;49.342;8.146;2023-02-02T15:50:59;9.70;99.90
780;DHT22;373;49.342;8.146;2023-02-02T15:53:44;9.70;99.90
780;DHT22;373;49.342;8.146;2023-02-02T15:56:20;9.80;99.90
780;DHT22;373;49.342;8.146;2023-02-02T15:58:48;9.70;99.90
780;DHT22;373;49.342;8.146;2023-02-02T16:01:17;9.70;99.90
780;DHT22;373;49.342;8.146;2023-02-02T16:03:47;9.70;99.90
780;DHT22;373;49.342;8.146;2023-02-02T16:06:17;9.70;99.90
780;DHT22;373;49.342;8.146;2023-02-02T16:08:44;9.80;99.70
780;DHT22;373;49.342;8.146;2023-02-02T16:11:16;9.80;99.90
780;DHT22;373;49.342;8.146;2023-02-02T16:13:56;9.80;99.90
780;DHT22;373;49.342;8.146;2023-02-02T16:16:25;9.70;99.90
780;DHT22;373;49.342;8.146;2023-02-02T16:19:12;9.60;99.90
780;DHT22;373;49.342;8.146;2023-02-02T16:21:45;9.50;99.90
780;DHT22;373;49.342;8.146;2023-02-02T16:24:17;9.50;99.90
780;DHT22;373;49.342;8.146;2023-02-02T16:26:45;9.50;99.90
780;DHT22;373;49.342;8.146;2023-02-02T16:29:15;9.40;99.90
780;DHT22;373;49.342;8.146;2023-02-02T16:31:45;9.40;99.90
780;DHT22;373;49.342;8.146;2023-02-02T16:34:14;9.40;99.90
780;DHT22;373;49.342;8.146;2023-02-02T16:36:42;9.50;99.90
780;DHT22;373;49.342;8.146;2023-02-02T16:39:15;9.20;99.90
780;DHT22;373;49.342;8.146;2023-02-02T16:41:45;9.20;1.00
780;DHT22;373;49.342;8.146;2023-02-02T16:44:37;9.20;1.00
780;DHT22;373;49.342;8.146;2023-02-02T16:47:05;9.20;99.90
780;DHT22;373;49.342;8.146;2023-02-02T16:49:33;9.30;1.00
780;DHT22;373;49.342;8.146;2023-02-02T16:52:10;9.30;99.90
780;DHT22;373;49.342;8.146;2023-02-02T16:54:39;9.20;1.00
780;DHT22;373;49.342;8.146;2023-02-02T16:57:16;9.10;1.00
780;DHT22;373;49.342;8.146;2023-02-02T16:59:49;9.10;1.00
780;DHT22;373;49.342;8.146;2023-02-02T17:02:26;8.90;99.80
780;DHT22;373;49.342;8.146;2023-02-02T17:04:57;8.90;99.90
780;DHT22;373;49.342;8.146;2023-02-02T17:07:26;8.90;1.00
780;DHT22;373;49.342;8.146;2023-02-02T17:10:17;8.70;99.90
780;DHT22;373;49.342;8.146;2023-02-02T17:12:46;8.70;1.00
780;DHT22;373;49.342;8.146;2023-02-02T17:15:31;8.70;1.00
780;DHT22;373;49.342;8.146;2023-02-02T17:17:58;8.70;1.00
780;DHT22;373;49.342;8.146;2023-02-02T17:20:29;8.80;1.00
780;DHT22;373;49.342;8.146;2023-02-02T17:23:00;8.80;99.90
780;DHT22;373;49.342;8.146;2023-02-02T17:25:30;8.70;99.90
780;DHT22;373;49.342;8.146;2023-02-02T17:27:59;8.80;90.70
780;DHT22;373;49.342;8.146;2023-02-02T17:30:28;8.90;1.00
780;DHT22;373;49.342;8.146;2023-02-02T17:32:56;8.90;12.20
780;DHT22;373;49.342;8.146;2023-02-02T17:35:24;8.70;99.90
780;DHT22;373;49.342;8.146;2023-02-02T17:37:54;8.80;1.00
780;DHT22;373;49.342;8.146;2023-02-02T17:40:22;8.90;99.90
780;DHT22;373;49.342;8.146;2023-02-02T17:42:51;8.80;73.80